Item Display Status Humidity-temperature Sensor

Elevation Above Sea Level: 3 m

 

Deployed Sensor

  • Serial Number: 61378499
  • NDBC Property Number: 39625
  • Start Date: 11/20/2016 (17:43:48 Z)
  • End Date: Currently Active
Relative Humidity [%]     6 entries per hour
Showing data from 2/21/2018 (05:00:00 Z) to 2/20/2018 (00:00:01 Z)
Previous Next [ Day | 3-Days | 7-Days ]
First Last
Prev [ Day | 3-Days | 7-Days ] Next
First Last

Start Time:     :
End Time:     :     
Time (in GMT) :00 :50 :40 :30 :20 :10
Previous Next [ Day | 3-Days | 7-Days ]
First Last
Prev [ Day | 3-Days | 7-Days ] Next
First Last


123 => good data
MM => data is determined as missing
-- => data not received/configured
Back to Top Back to Top
2/21/2018 05:00 to 4:10 87.90 87.96 87.90 88.10 86.95 82.87
2/21/2018 04:00 to 3:10 82.22 83.09 84.21 84.71 84.77 85.02
2/21/2018 03:00 to 2:10 84.90 85.16 86.21 86.95 86.34 84.33
2/21/2018 02:00 to 1:10 83.96 81.85 81.61 80.86 80.06 78.81
2/21/2018 01:00 to 0:10 80.47 80.96 81.04 80.63 79.98 79.35
2/21/2018 00:00 to 23:10 79.90 80.27 81.06 81.00 80.51 80.51
2/20/2018 23:00 to 22:10 81.10 81.65 81.49 82.20 82.44 82.93
2/20/2018 22:00 to 21:10 83.47 83.76 83.47 83.78 84.06 83.56
2/20/2018 21:00 to 20:10 83.27 83.23 83.74 84.35 84.83 85.97
2/20/2018 20:00 to 19:10 87.35 88.79 89.54 89.85 88.24 87.01
2/20/2018 19:00 to 18:10 86.15 86.05 85.97 86.34 85.99 85.83
2/20/2018 18:00 to 17:10 85.59 84.98 85.08 85.22 84.81 84.18
2/20/2018 17:00 to 16:10 83.68 82.93 83.74 84.69 85.38 86.21
2/20/2018 16:00 to 15:10 87.39 87.88 88.69 88.83 88.67 87.90
2/20/2018 15:00 to 14:10 85.85 85.32 85.46 85.65 85.57 85.59
2/20/2018 14:00 to 13:10 85.57 85.54 85.69 85.91 86.32 86.60
2/20/2018 13:00 to 12:10 86.11 84.75 84.79 84.16 83.03 82.82
2/20/2018 12:00 to 11:10 82.66 82.70 82.95 82.78 83.07 82.60
2/20/2018 11:00 to 10:10 83.13 83.62 84.73 85.06 85.36 85.65
2/20/2018 10:00 to 9:10 86.03 87.11 87.11 85.77 84.33 84.10
2/20/2018 09:00 to 8:10 84.14 84.53 84.63 84.85 85.57 85.22
2/20/2018 08:00 to 7:10 83.11 83.09 82.95 83.03 83.17 83.25
2/20/2018 07:00 to 6:10 83.43 83.05 83.15 83.11 82.74 82.46
2/20/2018 06:00 to 5:10 82.95 82.76 82.05 81.36 81.30 81.30
2/20/2018 05:00 to 4:10 80.80 80.02 81.12 80.51 80.90 80.53
2/20/2018 04:00 to 3:10 80.21 79.84 79.94 79.58 79.46 80.51
2/20/2018 03:00 to 2:10 80.31 81.67 82.07 82.26 82.72 80.86
2/20/2018 02:00 to 1:10 80.49 80.94 81.32 79.98 81.30 81.97
2/20/2018 01:00 to 0:10 81.93 81.99 81.81 81.95 82.34 82.36

 

 

 

Air Temperature [°C]     6 entries per hour
Showing data from 2/21/2018 (05:00:00 Z) to 2/20/2018 (00:00:01 Z)
Previous Next [ Day | 3-Days | 7-Days ]
First Last
Prev [ Day | 3-Days | 7-Days ] Next
First Last

Start Time:     :
End Time:     :     
Time (in GMT) :00 :50 :40 :30 :20 :10
Previous Next [ Day | 3-Days | 7-Days ]
First Last
Prev [ Day | 3-Days | 7-Days ] Next
First Last


123 => good data
MM => data is determined as missing
-- => data not received/configured
Back to Top Back to Top
2/21/2018 05:00 to 4:10 26.20 26.14 25.95 25.72 25.96 26.74
2/21/2018 04:00 to 3:10 26.52 26.43 26.45 26.60 26.53 26.26
2/21/2018 03:00 to 2:10 26.62 26.59 26.36 26.35 26.55 26.75
2/21/2018 02:00 to 1:10 26.47 26.84 26.91 27.08 27.23 27.75
2/21/2018 01:00 to 0:10 27.30 27.02 26.92 27.09 27.21 27.69
2/21/2018 00:00 to 23:10 27.52 27.39 27.19 27.05 27.06 27.18
2/20/2018 23:00 to 22:10 27.23 26.96 26.96 27.09 26.88 26.93
2/20/2018 22:00 to 21:10 26.91 26.84 26.93 26.88 26.94 26.90
2/20/2018 21:00 to 20:10 26.90 26.82 26.75 26.78 26.52 26.32
2/20/2018 20:00 to 19:10 26.19 26.01 25.71 25.59 25.47 26.45
2/20/2018 19:00 to 18:10 26.43 26.42 26.56 26.42 26.44 26.46
2/20/2018 18:00 to 17:10 26.57 26.69 26.77 26.69 26.87 26.87
2/20/2018 17:00 to 16:10 26.92 27.09 27.12 26.80 26.74 26.71
2/20/2018 16:00 to 15:10 26.32 26.17 25.87 25.82 25.85 25.65
2/20/2018 15:00 to 14:10 26.28 26.28 26.13 26.07 26.06 25.95
2/20/2018 14:00 to 13:10 26.01 25.92 25.88 25.86 25.86 25.76
2/20/2018 13:00 to 12:10 25.98 26.02 26.03 26.10 26.25 26.37
2/20/2018 12:00 to 11:10 26.32 26.23 26.32 26.28 26.42 26.32
2/20/2018 11:00 to 10:10 26.33 26.24 26.19 26.11 26.12 26.03
2/20/2018 10:00 to 9:10 25.92 25.74 25.55 26.00 26.22 26.28
2/20/2018 09:00 to 8:10 26.31 26.27 26.31 26.35 26.24 26.27
2/20/2018 08:00 to 7:10 26.62 26.59 26.68 26.61 26.64 26.62
2/20/2018 07:00 to 6:10 26.66 26.66 26.55 26.62 26.68 26.66
2/20/2018 06:00 to 5:10 26.65 26.70 26.72 26.73 26.81 26.65
2/20/2018 05:00 to 4:10 26.70 26.68 26.68 26.69 26.77 26.78
2/20/2018 04:00 to 3:10 26.72 26.74 26.84 26.74 26.66 26.65
2/20/2018 03:00 to 2:10 26.66 26.61 26.57 26.53 26.64 26.86
2/20/2018 02:00 to 1:10 26.96 27.08 27.06 27.19 27.13 26.97
2/20/2018 01:00 to 0:10 26.83 26.74 26.66 26.93 26.75 26.84